A- A+ FrançaisEnglishEspañol中国

le plus proche LFBT Tarbes-Lourdes-PyrénéesLFJL Metz Nancy LorraineLFCL Toulouse-Lasbordes LFBO Toulouse-Blagnac

manche à air

La météo aéronautique pour les pilotes, la préparation du vol avec les METAR (METeorological Aerodrome Report, message d'observation des conditions météorologiques pour l'aviation) et Les TAF (Terminal Aerodrome Forecast : message de prévision à court terme des conditions météorologiques pour l'aviation). Et les autres ressources comme les VAC (Visual Approch Chart) et les NOTAM (Notice To Airman) pour préprer les vols.

Aéroport Kirkenes Hoybuktmoen (Norvège) / OACI ENKR/ IATA KKN

L'altitude de l'aéroport Kirkenes Hoybuktmoen est de 86 m=282 ft. Il est situé à proximité de Kirkenes (Norvège). La météo générale à 5 jours est disponible pour Nikel situé à 37.1 km.

METAR de l'aéroport Kirkenes Hoybuktmoen - ENKR

ENKR 291020Z 06010KT 9999 -RA FEW007 BKN009 03/02 Q0995 RMK WIND 731FT 06018KT

Décodage du METAR de l'aéroport Kirkenes Hoybuktmoen (NO)

METAR émis par ENKR le dimanche 29 septembre 2019 à 10:20 heure TU. Attention ce METAR est obsolète car il a été émis il y a 7 heure et 34 minutes.

La visibilité est de supérieure à 10 km=supérieure à 6.2 sm.

La température est de 3°C=37 °F et le point rosée est de 2°C=36 °F . Ce qui correspond à 93% d'humidité relative.

Le QNH est de 995 hPa=29.38 inHg

Vent de 10 kt=19 km/h, orienté à 60°.

Nuages : Quelques nuages à 700 ft=210 mètres. Couverture nuageuse fragmentée à 900 ft=270 mètres.

-RA

RMK WIND 731FT 06018KT

TAF de l'aéroport Kirkenes Hoybuktmoen - ENKR

ENKR 290800Z 2909/2918 05012KT 9999 -RA SCT005 BKN012 TEMPO 2909/2918 3000 RASN BKN004

ENKR 290800Z 2909/2918 05012KT 9999 faible RA nuages épars à 005 couverture nuageuse fragmentée à 012 temporairement 2909/2918 3000 pluie SN couverture nuageuse fragmentée à 004

Aéroport à proximité de Kirkenes Hoybuktmoen

Météo générale à 5 jours à Nikel (37.1 km)ENVD Aéroport Vadso (38 km)ENSS Aéroport Vardoe (83 km)ENBS Aéroport Batsfjord (98 km)ENBV Aéroport Berlevag (131 km)ULMM Aéroport Murmansk (154 km)EFIV Aéroport Ivalo (159 km)

VAC de l'aéroport Kirkenes Hoybuktmoen - ENKR

La carte d'approche à vue (VAC Visual Approah Chart) est fournie sans aucune garantie de son actualité. Le pilote est le seul responsable de la vérification de sa validité avant de l'utiliser opérationnellement pour préparer un vol ou l'utiliser lors de sa navigation.

VAC de ENKR

Vue aérienne de l'aéroport Kirkenes Hoybuktmoen

NOTAM de l'aéroport Kirkenes Hoybuktmoen

Les NOTAM sont fournis sans aucune garantie de leur actualité. Le pilote est le seul responsable de la vérification de sa validité avant de l'utiliser opérationnellement pour préparer un vol ou l'utiliser lors de sa navigation.

Pas de NOTAM

Sources des données